Time;durP1;ratioP1;P1;durP2;ratioP2;P2;SDS_P1;SDS_P2;PMS_P1;PMS_P2;Temp;Humidity;BMP_temperature;BMP_pressure;BME280_temperature;BME280_humidity;BME280_pressure;Samples;Min_cycle;Max_cycle;Signal;HPM_P1;HPM_P2
2024/04/24 00:02:20;;;;;;;23.40;16.30;;;;;;;4.69;64.39;101117.22;108860;1260;73224;-67
2024/04/24 00:04:46;;;;;;;22.10;15.50;;;;;;;4.66;64.34;101114.10;108848;1260;60923;-66
2024/04/24 00:07:13;;;;;;;28.90;17.20;;;;;;;4.66;64.32;101111.81;108712;1260;138428;-66
2024/04/24 00:09:39;;;;;;;23.70;16.20;;;;;;;4.67;64.61;101110.87;108802;1263;75646;-66
2024/04/24 00:12:06;;;;;;;22.40;15.30;;;;;;;4.67;64.65;101107.04;108726;1260;139318;-67
2024/04/24 00:14:32;;;;;;;25.00;16.80;;;;;;;4.67;64.55;101106.86;108836;1260;71549;-67
2024/04/24 00:16:59;;;;;;;22.60;15.50;;;;;;;4.69;64.70;101105.38;108841;1260;62570;-66
2024/04/24 00:19:25;;;;;;;26.60;15.60;;;;;;;4.71;64.64;101106.20;108765;1260;138999;-66
2024/04/24 00:21:52;;;;;;;23.10;15.00;;;;;;;4.71;64.63;101101.65;108855;1260;75101;-67
2024/04/24 00:24:18;;;;;;;24.30;16.50;;;;;;;4.71;64.76;101100.95;108743;1260;139820;-66
2024/04/24 00:26:45;;;;;;;22.20;15.60;;;;;;;4.71;64.82;101099.40;108895;1259;71957;-67
2024/04/24 00:29:12;;;;;;;26.20;16.70;;;;;;;4.72;64.76;101094.44;108887;1260;60669;-66
2024/04/24 00:31:38;;;;;;;23.50;16.10;;;;;;;4.72;64.90;101092.89;108787;1260;138881;-66
2024/04/24 00:34:05;;;;;;;29.80;17.70;;;;;;;4.74;64.89;101090.67;108855;1260;77600;-67
2024/04/24 00:36:31;;;;;;;29.10;18.30;;;;;;;4.78;65.14;101094.25;108665;1261;138409;-66
2024/04/24 00:38:58;;;;;;;33.60;21.20;;;;;;;4.79;65.08;101093.61;108812;1260;71502;-67
2024/04/24 00:41:24;;;;;;;40.00;22.20;;;;;;;4.78;64.95;101088.48;108785;1260;60972;-67
2024/04/24 00:43:52;;;;;;;44.40;23.20;;;;;;;4.78;65.14;101083.64;108752;1260;138651;-66
2024/04/24 00:46:19;;;;;;;37.30;21.60;;;;;;;4.80;65.17;101083.90;108811;1260;77474;-66
2024/04/24 00:48:46;;;;;;;38.20;21.20;;;;;;;4.79;65.23;101083.83;108749;1260;139080;-66
2024/04/24 00:51:12;;;;;;;41.90;23.30;;;;;;;4.79;65.37;101079.67;108607;1260;70524;-66
2024/04/24 00:53:39;;;;;;;42.00;23.70;;;;;;;4.80;65.38;101072.58;108736;1260;60533;-65
2024/04/24 00:56:05;;;;;;;36.50;20.80;;;;;;;4.80;65.27;101073.11;108746;1260;138522;-66
2024/04/24 00:58:32;;;;;;;35.60;21.50;;;;;;;4.79;65.40;101065.62;108770;1260;76628;-66
2024/04/24 01:00:58;;;;;;;40.10;21.10;;;;;;;4.81;65.37;101068.66;108623;1260;139824;-66
2024/04/24 01:03:25;;;;;;;37.20;21.30;;;;;;;4.80;65.31;101064.06;108609;1260;72805;-66
2024/04/24 01:05:52;;;;;;;32.10;18.80;;;;;;;4.78;65.30;101063.78;108625;1260;139279;-66
2024/04/24 01:08:18;;;;;;;32.60;18.10;;;;;;;4.77;65.37;101060.59;108807;1260;60916;-65
2024/04/24 01:10:45;;;;;;;32.00;18.10;;;;;;;4.76;65.45;101061.27;108809;1260;76472;-67
2024/04/24 01:13:11;;;;;;;29.10;17.20;;;;;;;4.76;65.42;101060.92;108746;1260;139015;-67
2024/04/24 01:15:38;;;;;;;27.60;17.60;;;;;;;4.78;65.38;101058.92;108866;1260;72812;-67
2024/04/24 01:18:04;;;;;;;29.00;17.50;;;;;;;4.78;65.46;101056.50;108656;1262;138995;-66
2024/04/24 01:20:31;;;;;;;29.80;18.40;;;;;;;4.78;65.41;101054.76;108898;1260;60741;-66
2024/04/24 01:23:27;;;;;;;30.00;18.60;;;;;;;4.78;65.48;101054.77;108727;1262;76203;-66
2024/04/24 01:26:20;;;;;;;31.00;17.90;;;;;;;4.78;65.48;101052.52;108735;1260;138391;-66
2024/04/24 01:28:47;;;;;;;26.00;18.10;;;;;;;4.76;65.40;101052.39;108855;1260;72502;-67
2024/04/24 01:31:14;;;;;;;26.00;17.70;;;;;;;4.75;65.43;101048.88;108638;1260;138310;-66
2024/04/24 01:33:40;;;;;;;26.80;17.50;;;;;;;4.75;65.51;101050.39;108827;1260;60813;-66
2024/04/24 01:36:07;;;;;;;26.00;16.20;;;;;;;4.74;65.54;101046.00;108716;1260;138298;-66
2024/04/24 01:38:33;;;;;;;28.60;18.80;;;;;;;4.73;65.63;101039.69;108870;1260;66920;-66
2024/04/24 01:41:00;;;;;;;26.90;18.10;;;;;;;4.72;65.58;101037.23;108752;1260;71332;-66
2024/04/24 01:43:26;;;;;;;27.90;17.80;;;;;;;4.71;65.84;101038.06;108688;1260;138494;-67
2024/04/24 01:45:53;;;;;;;26.30;17.50;;;;;;;4.71;65.71;101034.04;108889;1260;60623;-66
2024/04/24 01:48:19;;;;;;;25.00;17.30;;;;;;;4.70;65.83;101034.87;108637;1260;138657;-65
2024/04/24 01:50:46;;;;;;;31.00;18.30;;;;;;;4.69;65.86;101031.16;108803;1260;66419;-65
2024/04/24 01:53:12;;;;;;;30.40;18.90;;;;;;;4.66;65.77;101029.46;108820;1260;71506;-65
2024/04/24 01:55:39;;;;;;;27.70;18.90;;;;;;;4.64;65.75;101024.66;108712;1260;139772;-66
2024/04/24 01:58:05;;;;;;;25.20;18.30;;;;;;;4.62;65.70;101024.02;108778;1260;60643;-65
2024/04/24 02:00:32;;;;;;;30.00;19.40;;;;;;;4.60;65.67;101020.42;108648;1260;139534;-65
2024/04/24 02:02:59;;;;;;;30.90;19.60;;;;;;;4.60;65.79;101021.45;108830;1260;67681;-65
2024/04/24 02:05:25;;;;;;;31.00;19.90;;;;;;;4.59;65.79;101019.88;108826;1260;71992;-66
2024/04/24 02:07:52;;;;;;;28.80;19.40;;;;;;;4.59;65.82;101018.66;108688;1260;139320;-66
2024/04/24 02:10:18;;;;;;;27.70;19.70;;;;;;;4.60;65.70;101019.70;108833;1263;61056;-66
2024/04/24 02:12:45;;;;;;;33.70;22.10;;;;;;;4.58;65.92;101018.56;108725;1260;138911;-66
2024/04/24 02:15:11;;;;;;;37.50;21.60;;;;;;;4.57;65.92;101018.17;108828;1260;66501;-67
2024/04/24 02:17:38;;;;;;;34.50;22.80;;;;;;;4.56;66.04;101017.09;108794;1260;72494;-67
2024/04/24 02:20:05;;;;;;;31.20;21.40;;;;;;;4.56;66.15;101016.02;108651;1260;138683;-67
2024/04/24 02:22:31;;;;;;;28.00;19.50;;;;;;;4.54;66.23;101015.75;108834;1259;60716;-67
2024/04/24 02:27:43;;;;;;;26.90;19.60;;;;;;;4.52;66.32;101012.70;108810;1260;64903;-66
2024/04/24 02:30:10;;;;;;;27.80;19.80;;;;;;;4.52;66.32;101010.42;108516;1260;233076;-65
2024/04/24 02:32:36;;;;;;;26.80;18.80;;;;;;;4.51;66.33;101007.58;108873;1260;60766;-67
2024/04/24 02:35:03;;;;;;;29.30;18.00;;;;;;;4.48;66.11;101005.88;108903;1260;60698;-67
2024/04/24 02:37:30;;;;;;;27.00;18.00;;;;;;;4.43;66.23;101007.52;108829;1259;138531;-67
2024/04/24 02:39:56;;;;;;;26.10;19.00;;;;;;;4.39;66.25;101004.05;108843;1261;60627;-67
2024/04/24 02:42:23;;;;;;;26.40;18.30;;;;;;;4.35;66.18;100999.82;108735;1260;139736;-66
2024/04/24 02:44:49;;;;;;;26.70;17.10;;;;;;;4.32;66.32;101000.87;108797;1260;60534;-66
2024/04/24 02:47:16;;;;;;;28.40;17.90;;;;;;;4.31;66.38;100999.21;108786;1260;60626;-66
2024/04/24 02:49:42;;;;;;;27.00;18.00;;;;;;;4.31;66.46;100996.42;108663;1260;138945;-66
2024/04/24 02:52:09;;;;;;;24.70;16.90;;;;;;;4.31;66.47;100991.91;108807;1260;64939;-66
2024/04/24 02:54:35;;;;;;;27.50;17.90;;;;;;;4.30;66.55;100989.80;108667;1260;138914;-65
2024/04/24 02:57:02;;;;;;;22.30;16.80;;;;;;;4.29;66.62;100987.19;108811;1260;60900;-65
2024/04/24 02:59:28;;;;;;;26.90;16.80;;;;;;;4.30;66.60;100981.09;108831;1260;60497;-65
2024/04/24 03:01:55;;;;;;;23.90;16.30;;;;;;;4.32;66.67;100978.43;108725;1260;138883;-65
2024/04/24 03:04:21;;;;;;;22.80;16.40;;;;;;;4.35;66.84;100976.70;108814;1260;66784;-66
2024/04/24 03:06:48;;;;;;;23.40;16.00;;;;;;;4.35;66.96;100975.31;108732;1260;139314;-66
2024/04/24 03:09:14;;;;;;;23.80;17.10;;;;;;;4.35;66.96;100981.71;108846;1260;60596;-65
2024/04/24 03:11:41;;;;;;;25.40;16.10;;;;;;;4.36;67.07;100971.72;108772;1260;61562;-66
2024/04/24 03:14:07;;;;;;;24.60;16.90;;;;;;;4.38;67.02;100975.09;108721;1260;138362;-65
2024/04/24 03:16:34;;;;;;;23.50;16.20;;;;;;;4.39;67.12;100970.97;108820;1260;67604;-65
2024/04/24 03:19:01;;;;;;;20.30;14.70;;;;;;;4.36;67.10;100967.55;108664;1260;138664;-65
2024/04/24 03:21:27;;;;;;;22.10;16.10;;;;;;;4.34;67.12;100962.58;108808;1260;60737;-66
2024/04/24 03:23:54;;;;;;;22.90;15.20;;;;;;;4.33;67.03;100962.36;108678;1260;139256;-65
2024/04/24 03:26:20;;;;;;;22.40;15.20;;;;;;;4.31;66.95;100958.56;108884;1260;76534;-66
2024/04/24 03:28:47;;;;;;;21.00;14.80;;;;;;;4.27;66.99;100955.61;108796;1260;66455;-65
2024/04/24 03:31:13;;;;;;;19.10;14.20;;;;;;;4.25;67.15;100959.13;108675;1260;139182;-66
2024/04/24 03:33:40;;;;;;;19.50;14.20;;;;;;;4.22;67.24;100959.16;108797;1260;60565;-66
2024/04/24 03:36:06;;;;;;;20.80;14.40;;;;;;;4.21;67.19;100959.42;108729;1260;139210;-66
2024/04/24 03:38:33;;;;;;;22.40;14.50;;;;;;;4.20;67.33;100952.95;108848;1260;76153;-66
2024/04/24 03:40:59;;;;;;;22.20;15.00;;;;;;;4.18;67.23;100946.42;108870;1260;65381;-67
2024/04/24 03:43:26;;;;;;;22.20;14.80;;;;;;;4.15;67.30;100949.20;108741;1260;138791;-66
2024/04/24 03:45:53;;;;;;;21.50;14.30;;;;;;;4.14;67.41;100948.64;108809;1260;60458;-67
2024/04/24 03:48:19;;;;;;;22.70;14.40;;;;;;;4.12;67.42;100943.51;108757;1260;138946;-66
2024/04/24 03:50:46;;;;;;;19.90;13.50;;;;;;;4.11;67.48;100939.13;108751;1260;74801;-66
2024/04/24 03:53:12;;;;;;;20.80;14.70;;;;;;;4.12;67.43;100934.64;108811;1261;64708;-67
2024/04/24 03:55:40;;;;;;;22.00;14.90;;;;;;;4.13;67.63;100932.22;108686;1260;138895;-67
2024/04/24 03:58:07;;;;;;;23.50;15.00;;;;;;;4.16;67.54;100929.66;108847;1260;60567;-67
2024/04/24 04:00:33;;;;;;;24.90;16.10;;;;;;;4.19;67.45;100928.91;108749;1260;138832;-67
2024/04/24 04:03:00;;;;;;;22.30;15.30;;;;;;;4.20;67.56;100930.58;108824;1260;76390;-66
2024/04/24 04:05:26;;;;;;;25.40;16.40;;;;;;;4.21;67.52;100925.40;108837;1260;65087;-66
2024/04/24 04:07:59;;;;;;;25.20;17.30;;;;;;;4.21;67.61;100923.15;108688;1261;138443;-66
2024/04/24 04:10:25;;;;;;;23.80;17.60;;;;;;;4.22;67.62;100922.46;108767;1260;60688;-66
2024/04/24 04:12:52;;;;;;;24.00;16.80;;;;;;;4.21;67.64;100920.02;108705;1260;138834;-66
2024/04/24 04:15:19;;;;;;;23.50;15.90;;;;;;;4.23;67.77;100919.42;108823;1260;75959;-67
2024/04/24 04:17:45;;;;;;;22.70;16.60;;;;;;;4.25;67.74;100915.92;108698;1260;140304;-66
2024/04/24 04:20:13;;;;;;;22.30;16.00;;;;;;;4.29;67.83;100912.29;108765;1261;70687;-65
2024/04/24 04:22:40;;;;;;;24.00;16.50;;;;;;;4.32;67.94;100912.80;108786;1260;60538;-65
2024/04/24 04:25:06;;;;;;;23.70;17.30;;;;;;;4.41;68.03;100915.34;108648;1261;139041;-65
2024/04/24 04:27:33;;;;;;;25.00;17.30;;;;;;;4.51;68.12;100910.30;108834;1259;75677;-65
2024/04/24 04:29:59;;;;;;;25.00;16.90;;;;;;;4.64;67.99;100901.61;108724;1260;139094;-65
2024/04/24 04:32:26;;;;;;;25.00;17.30;;;;;;;4.75;67.90;100901.44;108852;1260;72498;-66
2024/04/24 04:34:52;;;;;;;27.20;17.20;;;;;;;4.85;67.79;100896.39;108802;1260;60805;-67
2024/04/24 04:37:19;;;;;;;23.10;17.30;;;;;;;5.02;67.75;100893.91;108728;1260;138935;-67
2024/04/24 04:39:45;;;;;;;27.30;17.20;;;;;;;5.18;67.48;100896.97;108779;1260;75263;-67
2024/04/24 04:42:12;;;;;;;22.60;16.50;;;;;;;5.40;67.44;100894.17;108778;1260;138942;-66
2024/04/24 04:44:38;;;;;;;24.90;16.50;;;;;;;5.64;67.19;100891.48;108902;1260;72336;-67
2024/04/24 04:47:05;;;;;;;25.00;16.80;;;;;;;5.82;66.85;100889.72;108829;1260;60567;-67
2024/04/24 04:49:32;;;;;;;23.60;17.40;;;;;;;6.00;66.70;100884.46;108739;1260;138452;-67
2024/04/24 04:51:58;;;;;;;24.10;17.30;;;;;;;6.24;66.49;100885.02;108755;1262;74306;-67
2024/04/24 04:54:25;;;;;;;23.90;16.70;;;;;;;6.42;66.15;100879.39;108748;1260;138603;-67
2024/04/24 04:56:51;;;;;;;22.90;16.40;;;;;;;6.55;65.88;100879.76;108771;1262;70766;-66
2024/04/24 04:59:18;;;;;;;21.50;16.30;;;;;;;6.72;65.58;100875.61;108880;1260;60650;-66
2024/04/24 05:01:44;;;;;;;22.70;16.40;;;;;;;6.92;65.53;100875.08;108697;1260;138319;-66
2024/04/24 05:04:11;;;;;;;23.00;16.10;;;;;;;7.13;65.16;100872.07;108848;1260;75662;-70
2024/04/24 05:06:37;;;;;;;22.80;16.00;;;;;;;7.76;66.13;100864.94;108683;1259;139046;-67
2024/04/24 05:09:04;;;;;;;22.20;16.40;;;;;;;9.49;67.30;100862.89;108798;1260;72746;-66
2024/04/24 05:11:30;;;;;;;21.50;16.70;;;;;;;10.75;65.11;100857.05;108763;1260;61115;-69
2024/04/24 05:13:57;;;;;;;19.50;15.10;;;;;;;10.95;62.37;100851.60;108664;1260;138643;-70
2024/04/24 05:16:23;;;;;;;20.10;16.40;;;;;;;10.72;61.19;100846.98;108734;1260;75495;-67
2024/04/24 05:18:50;;;;;;;21.70;15.80;;;;;;;10.74;61.27;100845.26;108621;1261;139273;-68
2024/04/24 05:21:16;;;;;;;20.80;16.10;;;;;;;11.66;62.36;100838.15;108713;1260;71231;-68
2024/04/24 05:23:43;;;;;;;20.30;15.00;;;;;;;12.74;60.93;100836.94;108717;1260;60896;-68
2024/04/24 05:29:03;;;;;;;19.30;14.10;;;;;;;13.11;57.43;100830.53;108773;1260;76280;-69
2024/04/24 05:31:30;;;;;;;21.80;15.50;;;;;;;13.08;56.95;100829.42;108672;1260;138943;-70
2024/04/24 05:33:57;;;;;;;18.80;15.50;;;;;;;13.03;56.16;100828.46;108687;1263;72047;-67
2024/04/24 05:36:23;;;;;;;19.50;14.70;;;;;;;12.84;55.52;100825.68;108657;1260;139874;-68
2024/04/24 05:38:50;;;;;;;21.00;15.90;;;;;;;12.63;55.18;100823.38;108853;1260;60629;-65
2024/04/24 05:41:16;;;;;;;17.40;14.30;;;;;;;12.41;54.75;100821.57;108824;1260;75445;-66
2024/04/24 05:43:43;;;;;;;20.20;15.10;;;;;;;12.20;54.64;100822.06;108682;1260;138588;-68
2024/04/24 05:46:10;;;;;;;19.40;15.40;;;;;;;12.06;54.59;100820.91;108757;1260;73835;-66
2024/04/24 05:48:36;;;;;;;20.30;15.20;;;;;;;11.99;54.39;100824.28;108628;1260;139221;-65
2024/04/24 05:51:06;;;;;;;22.70;14.70;;;;;;;11.95;54.34;100824.02;108738;1260;61214;-65
2024/04/24 05:53:32;;;;;;;20.30;14.90;;;;;;;11.89;54.13;100825.80;108705;1260;77049;-66
2024/04/24 05:55:59;;;;;;;18.50;14.40;;;;;;;11.80;53.81;100824.39;108687;1260;139046;-67
2024/04/24 05:58:25;;;;;;;19.20;14.90;;;;;;;11.67;53.56;100829.39;108777;1260;73823;-66
2024/04/24 06:00:52;;;;;;;19.60;14.50;;;;;;;11.65;53.51;100827.75;108673;1260;139651;-66
2024/04/24 06:03:18;;;;;;;21.40;15.70;;;;;;;11.66;53.38;100832.88;108830;1260;60779;-66
2024/04/24 06:05:46;;;;;;;19.80;15.40;;;;;;;11.74;53.58;100834.44;108720;1260;139388;-65
2024/04/24 06:08:12;;;;;;;24.40;17.00;;;;;;;11.84;53.64;100834.66;108810;1260;64959;-66
2024/04/24 06:10:39;;;;;;;22.60;17.20;;;;;;;11.98;53.41;100833.75;108774;1260;60706;-66
2024/04/24 06:13:05;;;;;;;19.50;16.60;;;;;;;12.06;53.00;100832.52;108600;1263;139602;-66
2024/04/24 06:15:32;;;;;;;21.40;18.10;;;;;;;12.08;52.52;100827.28;108510;1260;61063;-65
2024/04/24 06:17:59;;;;;;;22.40;19.20;;;;;;;12.09;52.14;100822.02;108624;1260;139374;-66
2024/04/24 06:20:25;;;;;;;22.80;17.40;;;;;;;12.10;52.18;100826.09;108772;1260;67458;-67
2024/04/24 06:22:52;;;;;;;24.70;17.40;;;;;;;12.23;52.02;100822.45;108651;1261;70650;-66
2024/04/24 06:25:18;;;;;;;23.20;17.10;;;;;;;12.31;51.53;100816.29;108544;1267;139071;-67
2024/04/24 06:27:45;;;;;;;24.00;16.20;;;;;;;12.41;51.50;100815.05;108823;1260;61456;-66
2024/04/24 06:30:11;;;;;;;22.70;17.20;;;;;;;12.59;51.29;100815.56;108592;1260;138888;-67
2024/04/24 06:32:38;;;;;;;18.90;14.90;;;;;;;12.76;50.97;100813.75;108809;1260;67643;-67
2024/04/24 06:35:05;;;;;;;18.30;14.70;;;;;;;12.89;50.42;100808.68;108798;1260;72123;-67
2024/04/24 06:37:31;;;;;;;20.00;14.90;;;;;;;12.89;50.19;100806.04;108687;1260;139532;-67
2024/04/24 06:39:58;;;;;;;19.00;15.00;;;;;;;12.86;49.80;100804.39;108801;1260;61177;-67
2024/04/24 06:42:24;;;;;;;17.70;13.50;;;;;;;12.78;49.58;100802.00;108624;1260;139551;-66
2024/04/24 06:44:51;;;;;;;17.70;12.30;;;;;;;12.61;49.05;100800.27;108398;1264;67274;-67
2024/04/24 06:47:18;;;;;;;16.40;12.50;;;;;;;12.31;48.85;100804.15;108231;1259;74080;-67
2024/04/24 06:49:44;;;;;;;13.40;11.70;;;;;;;12.21;49.20;100798.86;108155;1260;140375;-67
2024/04/24 06:52:11;;;;;;;16.10;11.60;;;;;;;12.06;48.65;100791.02;108016;1260;61506;-67
2024/04/24 06:54:38;;;;;;;17.60;11.70;;;;;;;11.82;48.54;100789.08;107647;1263;141663;-67
2024/04/24 06:57:04;;;;;;;13.80;10.60;;;;;;;11.75;48.54;100796.85;108028;1263;66378;-67
2024/04/24 06:59:31;;;;;;;15.70;11.60;;;;;;;11.84;48.74;100795.46;108273;1263;72527;-67
2024/04/24 07:01:58;;;;;;;13.80;11.30;;;;;;;11.99;48.74;100791.58;107688;1260;140124;-67
2024/04/24 07:04:24;;;;;;;16.30;11.50;;;;;;;12.11;48.45;100790.56;107742;1265;61768;-67
2024/04/24 07:06:51;;;;;;;15.80;11.50;;;;;;;12.27;48.56;100788.04;107620;1260;138844;-67
2024/04/24 07:09:17;;;;;;;15.30;12.50;;;;;;;12.56;48.44;100782.08;107681;1260;67996;-67
2024/04/24 07:11:44;;;;;;;18.30;13.20;;;;;;;12.83;48.29;100784.10;107802;1260;72182;-66
2024/04/24 07:14:11;;;;;;;12.90;10.20;;;;;;;13.16;48.13;100782.86;107708;1260;62050;-66
2024/04/24 07:16:40;;;;;;;12.20;10.20;;;;;;;13.46;47.60;100785.62;107716;1260;61371;-67
2024/04/24 07:19:06;;;;;;;13.10;9.10;;;;;;;13.55;46.95;100787.65;107496;1262;139661;-67
2024/04/24 07:21:33;;;;;;;12.50;9.70;;;;;;;13.59;46.57;100788.08;107755;1260;65148;-67
2024/04/24 07:24:00;;;;;;;11.90;9.10;;;;;;;13.64;46.45;100782.49;107647;1260;139892;-67
2024/04/24 07:26:26;;;;;;;9.40;8.20;;;;;;;13.77;46.00;100779.65;107734;1260;62199;-67
2024/04/24 07:28:53;;;;;;;11.70;8.50;;;;;;;13.84;45.61;100779.05;107668;1260;62133;-68
2024/04/24 07:31:19;;;;;;;8.50;6.80;;;;;;;13.85;45.39;100771.83;107605;1260;138430;-66
2024/04/24 07:33:46;;;;;;;9.00;6.80;;;;;;;13.89;45.09;100767.45;107637;1260;65446;-67
2024/04/24 07:36:13;;;;;;;10.50;8.30;;;;;;;14.02;44.96;100768.30;107572;1260;139363;-67
2024/04/24 07:38:39;;;;;;;9.40;8.10;;;;;;;13.95;44.42;100764.17;107715;1260;61745;-67
2024/04/24 07:41:07;;;;;;;8.50;7.00;;;;;;;13.92;44.40;100761.85;107714;1263;62300;-67
2024/04/24 07:43:34;;;;;;;8.90;5.40;;;;;;;13.93;44.08;100757.45;107646;1260;139552;-67
2024/04/24 07:46:01;;;;;;;9.50;7.20;;;;;;;13.92;43.53;100757.79;107575;1260;66378;-67
2024/04/24 07:48:27;;;;;;;8.70;6.90;;;;;;;13.85;43.27;100759.13;108172;1260;138754;-67
2024/04/24 07:50:54;;;;;;;7.70;6.70;;;;;;;13.96;43.04;100754.48;108799;1260;60533;-67
2024/04/24 07:53:20;;;;;;;9.20;6.20;;;;;;;14.14;43.12;100754.66;108796;1263;61092;-67
2024/04/24 07:55:47;;;;;;;7.10;6.10;;;;;;;14.14;42.58;100752.58;108678;1260;138835;-67
2024/04/24 07:58:14;;;;;;;8.10;6.20;;;;;;;14.06;42.34;100750.89;108812;1260;66292;-67
2024/04/24 08:00:40;;;;;;;8.10;6.10;;;;;;;14.14;42.34;100749.39;108653;1260;138375;-66
2024/04/24 08:03:07;;;;;;;7.70;6.90;;;;;;;14.32;42.30;100744.45;108769;1260;61595;-66
2024/04/24 08:05:35;;;;;;;7.00;5.90;;;;;;;14.45;42.04;100743.50;108867;1260;61040;-66
2024/04/24 08:08:01;;;;;;;6.10;5.50;;;;;;;14.53;41.80;100743.05;108685;1260;138378;-67
2024/04/24 08:10:28;;;;;;;36.00;25.00;;;;;;;14.48;41.04;100741.77;108790;1260;65078;-66
2024/04/24 08:12:54;;;;;;;83.80;60.60;;;;;;;14.19;40.56;100739.20;108709;1259;139243;-67
2024/04/24 08:15:21;;;;;;;17.10;14.80;;;;;;;13.83;40.24;100739.34;108702;1260;61246;-67
2024/04/24 08:17:47;;;;;;;9.30;7.40;;;;;;;13.48;40.34;100738.73;108715;1258;138804;-67
2024/04/24 08:20:14;;;;;;;8.60;6.70;;;;;;;13.54;40.58;100739.16;108809;1260;60759;-67
2024/04/24 08:22:41;;;;;;;7.60;6.00;;;;;;;13.61;40.65;100735.90;108770;1259;64668;-67
2024/04/24 08:25:08;;;;;;;8.10;5.50;;;;;;;13.69;40.58;100727.89;108573;1261;138283;-67
2024/04/24 08:27:34;;;;;;;8.70;7.60;;;;;;;13.75;40.62;100723.39;108702;1260;61025;-67
2024/04/24 08:30:01;;;;;;;8.00;6.90;;;;;;;13.70;40.44;100723.15;108745;1259;138523;-67
2024/04/24 08:32:27;;;;;;;7.80;6.30;;;;;;;13.62;40.52;100721.83;108822;1260;76163;-67
2024/04/24 08:34:54;;;;;;;9.10;6.60;;;;;;;13.55;40.13;100725.79;108802;1260;67108;-67
2024/04/24 08:37:21;;;;;;;16.20;11.60;;;;;;;13.38;40.03;100719.94;108587;1263;138751;-67
2024/04/24 08:39:47;;;;;;;11.50;8.80;;;;;;;13.32;39.95;100719.67;108453;1260;61711;-67
2024/04/24 08:42:14;;;;;;;10.20;7.70;;;;;;;13.16;40.00;100714.32;108624;1260;139022;-67
2024/04/24 08:44:40;;;;;;;8.50;7.60;;;;;;;13.17;40.32;100716.98;108715;1261;76637;-67
2024/04/24 08:47:07;;;;;;;57.30;41.30;;;;;;;13.15;40.54;100708.84;108720;1259;67067;-66
2024/04/24 08:49:34;;;;;;;13.50;9.50;;;;;;;13.28;40.58;100707.27;108592;1260;139862;-65
2024/04/24 08:52:01;;;;;;;10.10;7.70;;;;;;;13.37;40.45;100708.81;108761;1260;60674;-68
2024/04/24 08:54:28;;;;;;;28.50;23.30;;;;;;;13.38;40.39;100704.42;108634;1260;140537;-66
2024/04/24 08:57:01;;;;;;;19.30;16.60;;;;;;;13.27;40.23;100703.55;108746;1260;73936;-66
2024/04/24 08:59:29;;;;;;;12.50;11.20;;;;;;;13.19;40.28;100699.74;108735;1260;66729;-66
2024/04/24 09:02:09;;;;;;;22.70;18.70;;;;;;;12.98;40.05;100695.05;108677;1260;138836;-66
2024/04/24 09:04:36;;;;;;;16.60;12.00;;;;;;;12.85;40.10;100696.95;108785;1260;60573;-67
2024/04/24 09:07:03;;;;;;;12.60;8.60;;;;;;;12.64;40.02;100691.36;108702;1260;139371;-67
2024/04/24 09:09:30;;;;;;;10.30;9.20;;;;;;;12.54;40.19;100688.40;108754;1260;75360;-67
2024/04/24 09:12:16;;;;;;;8.60;7.70;;;;;;;12.63;40.51;100683.95;108623;1260;139594;-67
2024/04/24 09:14:44;;;;;;;11.90;10.10;;;;;;;12.92;40.84;100680.16;108791;1260;73327;-66
2024/04/24 09:17:11;;;;;;;13.20;9.40;;;;;;;13.13;40.82;100678.87;108662;1261;60684;-66
2024/04/24 09:19:39;;;;;;;10.90;9.20;;;;;;;13.22;40.77;100674.94;108660;1260;139127;-67
2024/04/24 09:22:06;;;;;;;11.80;10.30;;;;;;;13.06;40.78;100671.55;108826;1260;77573;-67
2024/04/24 09:24:33;;;;;;;16.20;9.80;;;;;;;12.92;40.99;100667.12;108646;1260;138778;-66
2024/04/24 09:26:59;;;;;;;12.40;8.80;;;;;;;12.77;40.98;100665.86;108684;1260;70714;-66
2024/04/24 09:29:26;;;;;;;13.00;9.70;;;;;;;12.74;41.25;100662.46;108763;1260;60683;-67
2024/04/24 09:31:53;;;;;;;13.70;10.10;;;;;;;12.83;41.21;100659.27;108634;1261;138982;-67
2024/04/24 09:34:19;;;;;;;15.40;10.10;;;;;;;12.76;41.08;100661.42;108788;1260;74752;-67
2024/04/24 09:36:46;;;;;;;11.90;9.60;;;;;;;12.68;41.36;100656.39;108663;1260;138660;-67
2024/04/24 09:39:15;;;;;;;12.70;10.10;;;;;;;12.68;41.16;100663.60;108756;1260;71716;-67
2024/04/24 09:41:49;;;;;;;10.50;9.10;;;;;;;12.39;40.72;100659.63;108710;1260;60757;-67
2024/04/24 09:44:15;;;;;;;12.60;9.90;;;;;;;12.18;41.35;100656.66;108733;1260;61030;-67
2024/04/24 09:46:51;;;;;;;13.10;8.90;;;;;;;12.11;41.14;100655.84;108674;1260;74697;-67
2024/04/24 09:49:19;;;;;;;13.40;9.60;;;;;;;12.02;41.36;100655.51;108648;1264;138589;-67
2024/04/24 09:51:46;;;;;;;10.60;9.30;;;;;;;11.79;41.06;100654.89;108808;1260;73801;-67
2024/04/24 09:54:12;;;;;;;10.00;9.00;;;;;;;11.57;41.36;100656.92;108681;1264;138691;-67
2024/04/24 09:56:41;;;;;;;10.00;8.20;;;;;;;11.45;41.58;100651.26;108659;1264;60760;-67
2024/04/24 09:59:09;;;;;;;10.30;9.20;;;;;;;11.41;41.70;100654.34;108774;1264;74247;-67
2024/04/24 10:01:36;;;;;;;9.50;8.10;;;;;;;11.32;41.69;100655.56;108596;1262;138749;-67
2024/04/24 10:04:03;;;;;;;8.90;8.00;;;;;;;11.24;41.72;100647.50;108781;1260;73916;-67
2024/04/24 10:06:31;;;;;;;11.80;9.60;;;;;;;11.23;41.76;100640.44;108566;1260;139780;-66
2024/04/24 10:08:57;;;;;;;11.50;9.20;;;;;;;11.23;41.73;100642.89;108685;1266;60888;-66
2024/04/24 10:11:27;;;;;;;9.90;8.70;;;;;;;11.19;41.49;100639.30;108765;1262;77608;-66
2024/04/24 10:13:54;;;;;;;12.40;10.60;;;;;;;10.96;41.18;100638.65;108533;1263;139069;-67
2024/04/24 10:16:21;;;;;;;11.10;9.20;;;;;;;10.78;41.51;100638.95;108659;1260;72872;-67
2024/04/24 10:18:47;;;;;;;12.20;9.40;;;;;;;10.67;41.75;100634.33;108647;1260;139038;-67
2024/04/24 10:21:14;;;;;;;13.40;8.30;;;;;;;10.60;41.82;100626.61;108672;1260;60560;-67
2024/04/24 10:23:40;;;;;;;11.30;9.00;;;;;;;10.54;42.09;100625.26;108709;1265;74283;-67
2024/04/24 10:26:07;;;;;;;10.00;9.00;;;;;;;10.44;42.10;100620.64;108685;1260;138586;-67
2024/04/24 10:28:34;;;;;;;10.80;9.40;;;;;;;10.32;42.12;100622.08;108589;1266;73952;-67
2024/04/24 10:31:01;;;;;;;11.20;9.70;;;;;;;10.19;42.18;100622.46;108574;1260;139706;-66
2024/04/24 10:33:28;;;;;;;13.80;9.90;;;;;;;10.08;42.16;100624.11;108700;1260;61070;-67
2024/04/24 10:35:55;;;;;;;13.70;11.10;;;;;;;9.96;42.19;100615.04;108627;1260;138851;-67
2024/04/24 10:38:24;;;;;;;14.50;10.80;;;;;;;9.84;42.70;100614.75;108798;1260;66087;-67
2024/04/24 10:40:51;;;;;;;12.40;9.70;;;;;;;9.74;42.91;100605.38;108650;1261;73337;-66
2024/04/24 10:43:17;;;;;;;16.10;10.60;;;;;;;9.71;42.93;100611.44;108530;1260;140540;-66
2024/04/24 10:45:44;;;;;;;12.60;10.90;;;;;;;9.62;43.04;100609.78;108736;1260;61656;-66
2024/04/24 10:48:11;;;;;;;10.20;9.00;;;;;;;9.55;43.11;100611.01;108694;1264;139872;-66
2024/04/24 10:50:38;;;;;;;13.60;10.30;;;;;;;9.48;43.32;100610.28;108795;1260;63907;-66
2024/04/24 10:53:05;;;;;;;13.50;10.00;;;;;;;9.44;43.40;100607.03;108526;1264;71149;-66
2024/04/24 10:55:32;;;;;;;12.10;9.10;;;;;;;9.45;43.49;100610.38;108577;1260;138812;-66
2024/04/24 10:57:59;;;;;;;12.90;9.80;;;;;;;9.41;43.62;100607.63;108746;1260;61673;-66
2024/04/24 11:00:29;;;;;;;13.70;10.60;;;;;;;9.41;43.73;100597.33;108681;1260;138696;-66
2024/04/24 11:02:57;;;;;;;13.20;8.60;;;;;;;9.44;43.88;100594.77;108749;1260;67321;-66
2024/04/24 11:05:24;;;;;;;14.10;11.50;;;;;;;9.41;43.73;100592.92;108731;1260;71463;-66
2024/04/24 11:08:00;;;;;;;11.50;10.20;;;;;;;9.41;43.93;100592.77;108645;1261;138539;-66
2024/04/24 11:10:28;;;;;;;19.10;11.10;;;;;;;9.41;43.75;100585.41;108736;1260;61198;-65